createdAt,value
2018-06-02T00:01:37.266Z,32.30
2018-06-02T00:04:03.335Z,35.17
2018-06-02T00:06:29.391Z,30.65
2018-06-02T00:08:55.518Z,30.25
2018-06-02T00:11:21.583Z,28.62
2018-06-02T00:13:48.348Z,30.58
2018-06-02T00:16:14.442Z,28.80
2018-06-02T00:18:40.630Z,29.02
2018-06-02T00:21:06.688Z,28.50
2018-06-02T00:23:32.744Z,31.58
2018-06-02T00:25:59.609Z,30.33
2018-06-02T00:28:25.642Z,28.08
2018-06-02T00:30:52.433Z,26.87
2018-06-02T00:33:18.511Z,28.10
2018-06-02T00:35:44.581Z,27.00
2018-06-02T00:38:10.709Z,28.70
2018-06-02T00:40:36.844Z,29.30
2018-06-02T00:43:02.869Z,28.25
2018-06-02T00:45:29.657Z,26.42
2018-06-02T00:47:55.718Z,29.63
2018-06-02T00:50:21.750Z,28.62
2018-06-02T00:52:47.885Z,28.45
2018-06-02T00:55:13.993Z,28.15
2018-06-02T00:57:40.181Z,28.45
2018-06-02T01:00:06.245Z,30.55
2018-06-02T01:02:32.538Z,32.00
2018-06-02T01:04:58.596Z,32.67
2018-06-02T01:07:24.663Z,33.50
2018-06-02T01:09:50.705Z,35.70
2018-06-02T01:12:16.850Z,38.70
2018-06-02T01:14:43.942Z,39.42
2018-06-02T01:17:10.055Z,41.53
2018-06-02T01:19:36.177Z,42.47
2018-06-02T01:22:03.263Z,45.25
2018-06-02T01:24:30.050Z,47.60
2018-06-02T01:26:56.097Z,49.27
2018-06-02T01:29:22.217Z,50.30
2018-06-02T01:31:48.275Z,49.27
2018-06-02T01:34:14.428Z,48.40
2018-06-02T01:36:40.526Z,47.30
2018-06-02T01:39:06.595Z,45.25
2018-06-02T01:41:32.701Z,42.53
2018-06-02T01:43:58.726Z,41.65
2018-06-02T01:46:25.792Z,42.50
2018-06-02T01:48:51.885Z,43.65
2018-06-02T01:51:17.929Z,45.03
2018-06-02T01:53:44.024Z,46.05
2018-06-02T01:56:10.903Z,47.25
2018-06-02T01:58:36.974Z,48.10
2018-06-02T02:01:03.098Z,46.50
2018-06-02T02:03:29.173Z,46.28
2018-06-02T02:05:55.238Z,46.37
2018-06-02T02:08:21.285Z,44.10
2018-06-02T02:10:47.498Z,43.70
2018-06-02T02:13:13.573Z,42.90
2018-06-02T02:15:39.810Z,44.00
2018-06-02T02:18:05.885Z,46.10
2018-06-02T02:20:32.712Z,46.22
2018-06-02T02:22:59.525Z,45.65
2018-06-02T02:25:25.606Z,44.58
2018-06-02T02:27:51.669Z,43.03
2018-06-02T02:30:18.560Z,39.50
2018-06-02T02:32:44.964Z,37.93
2018-06-02T02:35:11.116Z,38.30
2018-06-02T02:37:37.231Z,41.13
2018-06-02T02:40:03.369Z,44.90
2018-06-02T02:42:29.493Z,46.05
2018-06-02T02:44:55.513Z,46.67
2018-06-02T02:47:21.582Z,48.72
2018-06-02T02:49:47.730Z,50.92
2018-06-02T02:52:13.880Z,55.95
2018-06-02T02:54:40.734Z,58.92
2018-06-02T02:57:07.111Z,62.92
2018-06-02T02:59:33.181Z,64.62
2018-06-02T03:01:59.255Z,69.37
2018-06-02T03:04:25.345Z,73.28
2018-06-02T03:06:51.414Z,80.68
2018-06-02T03:09:17.533Z,84.07
2018-06-02T03:11:43.654Z,87.95
2018-06-02T03:14:09.772Z,92.60
2018-06-02T03:16:35.864Z,91.63
2018-06-02T03:19:01.945Z,92.15
2018-06-02T03:21:28.005Z,94.30
2018-06-02T03:23:54.024Z,93.55
2018-06-02T03:26:20.056Z,94.13
2018-06-02T03:28:46.880Z,97.05
2018-06-02T03:31:13.000Z,94.53
2018-06-02T03:33:39.056Z,95.20
2018-06-02T03:36:05.945Z,94.30
2018-06-02T03:38:31.964Z,94.17
2018-06-02T03:40:58.740Z,91.22
2018-06-02T03:43:24.793Z,87.95
2018-06-02T03:45:51.082Z,85.20
2018-06-02T03:48:17.267Z,87.32
2018-06-02T03:50:43.360Z,87.03
2018-06-02T03:53:09.464Z,90.50
2018-06-02T03:55:35.593Z,93.22
2018-06-02T03:58:01.656Z,89.43
2018-06-02T04:02:41.413Z,95.87
2018-06-02T04:05:07.425Z,100.38
2018-06-02T04:07:34.222Z,102.28
2018-06-02T04:10:00.605Z,97.00
2018-06-02T04:12:27.361Z,98.47
2018-06-02T04:14:53.372Z,96.25
2018-06-02T04:17:19.416Z,100.60
2018-06-02T04:19:45.492Z,101.77
2018-06-02T04:22:11.616Z,97.53
2018-06-02T04:24:38.380Z,95.63
2018-06-02T04:27:05.147Z,98.57
2018-06-02T04:29:31.169Z,92.57
2018-06-02T04:31:57.177Z,97.45
2018-06-02T04:34:23.202Z,95.18
2018-06-02T04:36:49.225Z,90.68
2018-06-02T04:39:15.334Z,90.23
2018-06-02T04:41:41.505Z,95.70
2018-06-02T04:44:07.522Z,94.82
2018-06-02T04:46:33.584Z,92.90
2018-06-02T04:48:59.671Z,92.53
2018-06-02T04:51:25.713Z,94.50
2018-06-02T04:53:51.744Z,94.60
2018-06-02T04:56:17.877Z,95.72
2018-06-02T04:58:43.945Z,94.77
2018-06-02T05:01:09.970Z,94.62
2018-06-02T05:03:36.202Z,94.47
2018-06-02T05:06:02.230Z,91.32
2018-06-02T05:08:28.985Z,90.57
2018-06-02T05:10:55.229Z,87.33
2018-06-02T05:13:21.301Z,84.97
2018-06-02T05:15:47.392Z,83.95
2018-06-02T05:18:14.213Z,85.78
2018-06-02T05:20:40.326Z,83.07
2018-06-02T05:23:06.406Z,84.65
2018-06-02T05:25:32.448Z,86.30
2018-06-02T05:27:58.468Z,86.47
2018-06-02T05:30:24.495Z,89.07
2018-06-02T05:32:50.517Z,89.20
2018-06-02T05:35:16.542Z,88.00
2018-06-02T05:37:42.564Z,90.87
2018-06-02T05:40:08.589Z,96.22
2018-06-02T05:42:35.385Z,95.50
2018-06-02T05:45:01.421Z,94.43
2018-06-02T05:47:27.477Z,94.90
2018-06-02T05:49:53.500Z,99.60
2018-06-02T05:52:20.236Z,95.95
2018-06-02T05:54:46.260Z,97.30
2018-06-02T05:57:12.301Z,99.07
2018-06-02T05:59:38.319Z,97.00
2018-06-02T06:02:04.402Z,82.30
2018-06-02T06:04:30.437Z,82.03
2018-06-02T06:06:56.491Z,86.20
2018-06-02T06:09:22.520Z,78.50
2018-06-02T06:11:48.556Z,62.80
2018-06-02T06:14:14.959Z,60.07
2018-06-02T06:16:40.996Z,57.37
2018-06-02T06:19:07.019Z,53.23
2018-06-02T06:21:33.777Z,53.60
2018-06-02T06:23:59.952Z,51.47
2018-06-02T06:26:26.017Z,55.77
2018-06-02T06:28:52.106Z,58.90
2018-06-02T06:31:18.127Z,59.57
2018-06-02T06:33:44.163Z,60.53
2018-06-02T06:36:11.005Z,62.90
2018-06-02T06:38:37.777Z,66.30
2018-06-02T06:41:03.893Z,60.97
2018-06-02T06:43:30.692Z,66.10
2018-06-02T06:45:56.753Z,59.97
2018-06-02T06:48:22.784Z,60.37
2018-06-02T06:50:48.840Z,59.87
2018-06-02T06:53:14.948Z,61.27
2018-06-02T06:55:41.110Z,63.17
2018-06-02T06:58:07.302Z,61.37
2018-06-02T07:00:33.513Z,54.10
2018-06-02T07:02:59.533Z,54.70
2018-06-02T07:05:25.559Z,54.60
2018-06-02T07:07:51.583Z,52.47
2018-06-02T07:10:19.741Z,57.30
2018-06-02T07:12:46.145Z,54.07
2018-06-02T07:15:12.264Z,79.78
2018-06-02T07:17:38.316Z,89.62
2018-06-02T07:20:04.421Z,87.53
2018-06-02T07:22:30.488Z,95.80
2018-06-02T07:24:56.641Z,84.30
2018-06-02T07:27:22.688Z,84.35
2018-06-02T07:29:48.742Z,79.53
2018-06-02T07:32:15.036Z,78.90
2018-06-02T07:34:41.217Z,84.43
2018-06-02T07:37:08.018Z,83.82
2018-06-02T07:39:34.247Z,85.00
2018-06-02T07:42:00.345Z,86.07
2018-06-02T07:44:27.161Z,83.03
2018-06-02T07:46:53.247Z,86.80
2018-06-02T07:49:19.377Z,84.65
2018-06-02T07:51:46.276Z,88.72
2018-06-02T07:54:12.378Z,91.25
2018-06-02T07:56:38.467Z,91.50
2018-06-02T07:59:04.490Z,88.62
2018-06-02T08:01:30.520Z,93.60
2018-06-02T08:03:56.661Z,95.65
2018-06-02T08:06:22.699Z,94.90
2018-06-02T08:08:48.788Z,86.20
2018-06-02T08:11:15.629Z,85.68
2018-06-02T08:13:41.752Z,84.37
2018-06-02T08:16:07.816Z,78.90
2018-06-02T08:18:33.911Z,80.33
2018-06-02T08:20:59.944Z,81.20
2018-06-02T08:23:25.964Z,70.83
2018-06-02T08:25:52.027Z,68.20
2018-06-02T08:28:18.057Z,62.38
2018-06-02T08:30:44.160Z,59.08
2018-06-02T08:33:10.249Z,58.33
2018-06-02T08:35:36.512Z,57.25
2018-06-02T08:38:02.502Z,55.13
2018-06-02T08:40:28.545Z,49.85
2018-06-02T08:42:54.876Z,46.03
2018-06-02T08:45:20.924Z,52.55
2018-06-02T08:47:46.998Z,47.50
2018-06-02T08:50:13.173Z,43.05
2018-06-02T08:52:39.204Z,36.17
2018-06-02T08:55:05.992Z,33.63
2018-06-02T08:57:32.017Z,32.30
2018-06-02T08:59:58.090Z,29.90
2018-06-02T09:02:24.124Z,31.20
2018-06-02T09:04:50.132Z,30.93
2018-06-02T09:07:16.211Z,29.13
2018-06-02T09:09:42.401Z,29.00
2018-06-02T09:12:08.411Z,31.40
2018-06-02T09:14:35.212Z,27.63
2018-06-02T09:17:01.230Z,25.07
2018-06-02T09:19:27.297Z,28.17
2018-06-02T09:21:53.336Z,28.70
2018-06-02T09:24:19.354Z,25.92
2018-06-02T09:26:45.377Z,22.55
2018-06-02T09:29:11.420Z,18.08
2018-06-02T09:31:37.458Z,19.20
2018-06-02T09:34:03.543Z,18.63
2018-06-02T09:36:29.670Z,19.77
2018-06-02T09:38:55.953Z,20.10
2018-06-02T09:41:22.749Z,20.45
2018-06-02T09:43:48.763Z,19.35
2018-06-02T09:46:14.809Z,20.50
2018-06-02T09:48:40.868Z,18.60
2018-06-02T09:51:06.929Z,19.10
2018-06-02T09:53:32.985Z,18.75
2018-06-02T09:55:59.735Z,19.05
2018-06-02T09:58:26.505Z,17.98
2018-06-02T10:00:53.281Z,16.50
2018-06-02T10:03:19.316Z,16.45
2018-06-02T10:05:45.461Z,13.80
2018-06-02T10:08:11.533Z,11.70
2018-06-02T10:10:37.604Z,11.50
2018-06-02T10:13:03.610Z,11.40
2018-06-02T10:15:29.712Z,11.07
2018-06-02T10:17:55.966Z,9.93
2018-06-02T10:20:22.061Z,8.40
2018-06-02T10:22:48.082Z,8.57
2018-06-02T10:25:14.853Z,7.20
2018-06-02T10:27:41.009Z,7.17
2018-06-02T10:30:07.804Z,7.80
2018-06-02T10:32:34.579Z,6.70
2018-06-02T10:35:00.604Z,6.90
2018-06-02T10:37:26.779Z,7.40
2018-06-02T10:39:52.790Z,7.25
2018-06-02T10:42:18.794Z,7.57
2018-06-02T10:44:44.852Z,8.20
2018-06-02T10:47:10.937Z,6.70
2018-06-02T10:49:36.948Z,6.97
2018-06-02T10:52:03.735Z,7.00
2018-06-02T10:54:29.813Z,6.70
2018-06-02T10:56:56.143Z,7.60
2018-06-02T10:59:22.430Z,8.00
2018-06-02T11:01:49.236Z,7.97
2018-06-02T11:04:15.322Z,8.60
2018-06-02T11:06:42.153Z,10.90
2018-06-02T11:09:08.225Z,13.23
2018-06-02T11:11:34.216Z,16.00
2018-06-02T11:14:00.255Z,17.80
2018-06-02T11:16:26.364Z,19.15
2018-06-02T11:18:52.407Z,18.20
2018-06-02T11:21:18.612Z,20.40
2018-06-02T11:23:45.405Z,20.30
2018-06-02T11:26:11.513Z,19.17
2018-06-02T11:28:38.276Z,19.33
2018-06-02T11:31:04.359Z,19.27
2018-06-02T11:33:30.579Z,18.42
2018-06-02T11:35:56.660Z,18.70
2018-06-02T11:38:23.550Z,18.90
2018-06-02T11:40:49.644Z,18.67
2018-06-02T11:43:15.701Z,18.63
2018-06-02T11:45:42.525Z,18.12
2018-06-02T11:48:08.621Z,18.12
2018-06-02T11:50:34.680Z,18.03
2018-06-02T11:53:01.190Z,16.15
2018-06-02T11:55:27.348Z,15.75
2018-06-02T11:57:53.759Z,15.67
2018-06-02T12:00:20.036Z,15.10
2018-06-02T12:02:46.199Z,15.10
2018-06-02T12:05:12.281Z,14.63
2018-06-02T12:07:39.065Z,14.25
2018-06-02T12:10:05.151Z,14.80
2018-06-02T12:12:32.045Z,14.80
2018-06-02T12:14:58.137Z,14.13
2018-06-02T12:17:24.327Z,13.52
2018-06-02T12:19:50.434Z,12.80
2018-06-02T12:22:16.558Z,14.00
2018-06-02T12:24:42.678Z,15.93
2018-06-02T12:27:09.474Z,16.40
2018-06-02T12:29:36.554Z,16.20
2018-06-02T12:32:02.616Z,18.50
2018-06-02T12:34:28.706Z,18.65
2018-06-02T12:36:54.799Z,19.77
2018-06-02T12:39:20.850Z,19.40
2018-06-02T12:41:46.998Z,20.23
2018-06-02T12:44:13.094Z,19.83
2018-06-02T12:46:39.169Z,19.90
2018-06-02T12:49:06.205Z,20.10
2018-06-02T12:51:32.309Z,21.30
2018-06-02T12:53:59.109Z,21.35
2018-06-02T12:56:25.324Z,21.43
2018-06-02T12:58:51.437Z,22.15
2018-06-02T13:01:18.190Z,22.90
2018-06-02T13:03:45.019Z,24.65
2018-06-02T13:06:11.064Z,25.67
2018-06-02T13:08:37.126Z,26.03
2018-06-02T13:11:04.069Z,24.50
2018-06-02T13:13:30.126Z,23.85
2018-06-02T13:15:56.902Z,24.25
2018-06-02T13:18:23.110Z,25.33
2018-06-02T13:20:49.948Z,26.50
2018-06-02T13:23:15.998Z,26.17
2018-06-02T13:25:42.906Z,27.15
2018-06-02T13:28:08.945Z,26.37
2018-06-02T13:30:35.020Z,25.40
2018-06-02T13:33:01.179Z,26.15
2018-06-02T13:35:28.345Z,26.92
2018-06-02T13:37:55.125Z,26.97
2018-06-02T13:40:21.217Z,26.05
2018-06-02T13:42:47.324Z,26.75
2018-06-02T13:45:13.357Z,26.35
2018-06-02T13:47:39.403Z,27.35
2018-06-02T13:50:06.184Z,26.47
2018-06-02T13:52:32.972Z,28.23
2018-06-02T13:54:59.199Z,28.75
2018-06-02T13:57:25.281Z,30.77
2018-06-02T13:59:52.136Z,38.28
2018-06-02T14:02:18.202Z,37.95
2018-06-02T14:04:44.236Z,40.00
2018-06-02T14:07:10.637Z,39.35
2018-06-02T14:09:36.697Z,40.80
2018-06-02T14:12:02.777Z,41.73
2018-06-02T14:14:30.222Z,41.83
2018-06-02T14:16:56.303Z,42.10
2018-06-02T14:19:22.332Z,42.15
2018-06-02T14:21:48.409Z,41.37
2018-06-02T14:24:14.462Z,45.30
2018-06-02T14:26:40.493Z,43.65
2018-06-02T14:29:06.622Z,44.08
2018-06-02T14:31:32.703Z,42.50
2018-06-02T14:33:59.470Z,42.05
2018-06-02T14:36:26.381Z,42.78
2018-06-02T14:38:54.043Z,41.23
2018-06-02T14:41:20.173Z,42.10
2018-06-02T14:43:46.330Z,42.83
2018-06-02T14:46:12.456Z,41.00
2018-06-02T14:48:38.500Z,40.75
2018-06-02T14:51:04.534Z,41.03
2018-06-02T14:53:30.779Z,40.28
2018-06-02T14:55:56.854Z,38.45
2018-06-02T14:58:22.900Z,41.08
2018-06-02T15:00:49.740Z,40.20
2018-06-02T15:03:15.841Z,39.88
2018-06-02T15:05:41.918Z,39.60
2018-06-02T15:08:08.065Z,36.78
2018-06-02T15:10:34.888Z,37.10
2018-06-02T15:13:00.980Z,34.15
2018-06-02T15:15:27.774Z,32.35
2018-06-02T15:17:53.811Z,32.92
2018-06-02T15:20:20.628Z,33.53
2018-06-02T15:22:46.705Z,36.80
2018-06-02T15:25:12.766Z,36.63
2018-06-02T15:27:39.176Z,35.70
2018-06-02T15:30:05.204Z,36.30
2018-06-02T15:32:31.264Z,36.90
2018-06-02T15:34:57.330Z,38.27
2018-06-02T15:37:23.358Z,39.97
2018-06-02T15:39:49.458Z,39.92
2018-06-02T15:42:15.527Z,38.23
2018-06-02T15:44:41.545Z,40.70
2018-06-02T15:47:07.624Z,41.50
2018-06-02T15:49:34.465Z,40.83
2018-06-02T15:52:00.673Z,40.37
2018-06-02T15:54:26.718Z,43.70
2018-06-02T15:56:52.739Z,38.23
2018-06-02T15:59:18.840Z,39.50
2018-06-02T16:01:45.693Z,38.17
2018-06-02T16:04:12.461Z,38.80
2018-06-02T16:06:38.472Z,39.50
2018-06-02T16:09:04.518Z,39.13
2018-06-02T16:11:31.335Z,38.03
2018-06-02T16:13:57.389Z,36.70
2018-06-02T16:16:23.635Z,39.13
2018-06-02T16:18:49.704Z,39.33
2018-06-02T16:21:16.613Z,39.73
2018-06-02T16:23:42.651Z,38.10
2018-06-02T16:26:08.709Z,37.70
2018-06-02T16:28:34.711Z,40.50
2018-06-02T16:31:00.768Z,39.67
2018-06-02T16:33:26.789Z,39.27
2018-06-02T16:35:53.244Z,37.00
2018-06-02T16:38:19.322Z,36.83
2018-06-02T16:40:46.133Z,37.20
2018-06-02T16:43:12.186Z,38.17
2018-06-02T16:45:38.213Z,36.40
2018-06-02T16:48:04.249Z,35.57
2018-06-02T16:50:30.282Z,38.40
2018-06-02T16:52:56.292Z,37.67
2018-06-02T16:55:22.417Z,39.93
2018-06-02T16:57:48.477Z,36.63
2018-06-02T17:00:14.501Z,37.00
2018-06-02T17:02:40.556Z,36.10
2018-06-02T17:05:06.567Z,36.90
2018-06-02T17:07:32.586Z,34.83
2018-06-02T17:09:59.359Z,34.87
2018-06-02T17:12:25.438Z,37.83
2018-06-02T17:14:51.445Z,36.00
2018-06-02T17:17:17.493Z,36.37
2018-06-02T17:19:43.559Z,36.97
2018-06-02T17:22:09.567Z,35.93
2018-06-02T17:24:35.653Z,36.97
2018-06-02T17:27:02.436Z,35.87
2018-06-02T17:29:28.593Z,34.53
2018-06-02T17:31:54.633Z,36.50
2018-06-02T17:34:20.641Z,37.23
2018-06-02T17:36:46.665Z,34.73
2018-06-02T17:39:13.092Z,37.33
2018-06-02T17:41:39.877Z,35.73
2018-06-02T17:44:06.002Z,37.30
2018-06-02T17:46:32.876Z,38.10
2018-06-02T17:48:58.986Z,35.67
2018-06-02T17:51:25.807Z,35.90
2018-06-02T17:53:52.190Z,40.10
2018-06-02T17:56:18.978Z,40.27
2018-06-02T17:58:44.992Z,36.90
2018-06-02T18:01:11.132Z,38.97
2018-06-02T18:03:37.172Z,38.50
2018-06-02T18:06:03.196Z,38.47
2018-06-02T18:08:29.792Z,38.23
2018-06-02T18:10:56.161Z,38.90
2018-06-02T18:13:22.975Z,38.70
2018-06-02T18:15:49.014Z,37.90
2018-06-02T18:18:15.057Z,38.63
2018-06-02T18:20:41.188Z,37.20
2018-06-02T18:23:07.326Z,37.63
2018-06-02T18:25:33.733Z,37.00
2018-06-02T18:28:00.558Z,38.73
2018-06-02T18:30:26.592Z,37.97
2018-06-02T18:32:52.684Z,37.33
2018-06-02T18:35:18.745Z,35.70
2018-06-02T18:37:44.831Z,34.70
2018-06-02T18:40:10.916Z,37.80
2018-06-02T18:42:37.021Z,38.40
2018-06-02T18:45:03.832Z,37.20
2018-06-02T18:47:29.884Z,37.30
2018-06-02T18:49:56.182Z,37.40
2018-06-02T18:52:22.260Z,36.30
2018-06-02T18:54:48.347Z,37.40
2018-06-02T18:57:14.485Z,34.77
2018-06-02T18:59:40.541Z,35.03
2018-06-02T19:02:06.597Z,39.00
2018-06-02T19:04:32.675Z,39.23
2018-06-02T19:06:59.470Z,41.00
2018-06-02T19:09:25.506Z,35.87
2018-06-02T19:11:51.648Z,36.50
2018-06-02T19:14:17.732Z,33.97
2018-06-02T19:16:44.523Z,36.90
2018-06-02T19:19:10.640Z,35.40
2018-06-02T19:21:37.473Z,34.33
2018-06-02T19:24:03.513Z,35.90
2018-06-02T19:26:29.531Z,35.77
2018-06-02T19:28:55.614Z,33.50
2018-06-02T19:31:21.717Z,34.07
2018-06-02T19:33:47.828Z,36.70
2018-06-02T19:36:14.737Z,32.40
2018-06-02T19:38:40.759Z,32.60
2018-06-02T19:41:06.821Z,32.20
2018-06-02T19:43:33.011Z,32.07
2018-06-02T19:45:59.055Z,33.23
2018-06-02T19:48:25.132Z,32.70
2018-06-02T19:50:51.173Z,32.77
2018-06-02T19:53:17.393Z,35.03
2018-06-02T19:55:44.146Z,35.17
2018-06-02T19:58:10.925Z,32.43
2018-06-02T20:00:36.969Z,33.37
2018-06-02T20:03:02.987Z,37.23
2018-06-02T20:05:29.787Z,36.20
2018-06-02T20:07:55.884Z,37.13
2018-06-02T20:10:22.123Z,36.40
2018-06-02T20:12:55.134Z,34.87
2018-06-02T20:15:21.262Z,37.60
2018-06-02T20:17:48.054Z,37.47
2018-06-02T20:20:14.131Z,38.57
2018-06-02T20:22:40.218Z,37.43
2018-06-02T20:25:06.228Z,37.97
2018-06-02T20:27:32.989Z,37.60
2018-06-02T20:29:59.058Z,40.27
2018-06-02T20:32:25.041Z,39.13
2018-06-02T20:34:51.057Z,39.33
2018-06-02T20:37:17.120Z,40.23
2018-06-02T20:39:43.905Z,39.23
2018-06-02T20:42:09.917Z,42.03
2018-06-02T20:44:36.731Z,40.97
2018-06-02T20:47:02.753Z,41.10
2018-06-02T20:49:28.824Z,45.07
2018-06-02T20:51:54.919Z,43.80
2018-06-02T20:54:20.961Z,45.40
2018-06-02T20:56:47.004Z,42.67
2018-06-02T20:59:13.075Z,42.67
2018-06-02T21:01:39.209Z,42.37
2018-06-02T21:04:05.290Z,45.53
2018-06-02T21:06:31.304Z,46.23
2018-06-02T21:08:58.149Z,44.90
2018-06-02T21:11:24.198Z,43.20
2018-06-02T21:13:50.960Z,42.67
2018-06-02T21:16:17.817Z,41.67
2018-06-02T21:18:44.964Z,41.97
2018-06-02T21:21:10.978Z,39.47
2018-06-02T21:23:37.167Z,41.50
2018-06-02T21:26:03.231Z,43.60
2018-06-02T21:28:29.282Z,40.67
2018-06-02T21:30:55.388Z,41.00
2018-06-02T21:33:21.428Z,42.37
2018-06-02T21:35:47.441Z,42.83
2018-06-02T21:38:14.283Z,43.37
2018-06-02T21:40:40.317Z,43.87
2018-06-02T21:43:06.526Z,41.60
2018-06-02T21:45:32.578Z,42.40
2018-06-02T21:47:58.712Z,41.17
2018-06-02T21:50:31.783Z,42.80
2018-06-02T21:52:57.780Z,42.80
2018-06-02T21:55:24.652Z,45.10
2018-06-02T21:57:50.924Z,45.30
2018-06-02T22:00:16.949Z,41.87
2018-06-02T22:02:43.001Z,45.23
2018-06-02T22:05:09.065Z,43.67
2018-06-02T22:07:35.112Z,45.00
2018-06-02T22:10:01.174Z,45.83
2018-06-02T22:12:27.214Z,46.70
2018-06-02T22:14:53.272Z,47.40
2018-06-02T22:17:19.325Z,46.87
2018-06-02T22:19:45.384Z,45.77
2018-06-02T22:22:11.410Z,46.07
2018-06-02T22:24:37.496Z,46.13
2018-06-02T22:27:03.575Z,47.87
2018-06-02T22:29:29.584Z,47.87
2018-06-02T22:31:55.649Z,48.20
2018-06-02T22:34:21.728Z,48.23
2018-06-02T22:36:48.497Z,47.63
2018-06-02T22:39:14.561Z,45.30
2018-06-02T22:41:40.619Z,45.00
2018-06-02T22:44:06.680Z,47.07
2018-06-02T22:46:32.769Z,44.00
2018-06-02T22:48:58.856Z,47.53
2018-06-02T22:51:37.366Z,43.07
2018-06-02T22:54:03.431Z,42.67
2018-06-02T22:56:30.179Z,43.93
2018-06-02T22:58:56.246Z,45.07
2018-06-02T23:01:22.290Z,44.07
2018-06-02T23:03:48.335Z,39.93
2018-06-02T23:06:14.429Z,42.03
2018-06-02T23:08:41.774Z,40.37
2018-06-02T23:11:07.850Z,41.70
2018-06-02T23:13:34.653Z,39.37
2018-06-02T23:16:00.716Z,40.20
2018-06-02T23:18:26.729Z,40.07
2018-06-02T23:20:53.019Z,39.77
2018-06-02T23:23:19.079Z,38.80
2018-06-02T23:25:45.110Z,39.53
2018-06-02T23:28:11.147Z,39.07
2018-06-02T23:30:37.173Z,39.20
2018-06-02T23:33:04.673Z,36.57
2018-06-02T23:35:30.697Z,36.73
2018-06-02T23:37:56.742Z,39.30
2018-06-02T23:40:22.766Z,37.17
2018-06-02T23:42:48.852Z,38.23
2018-06-02T23:45:14.893Z,39.43
2018-06-02T23:47:40.941Z,41.77
2018-06-02T23:50:06.999Z,38.97
2018-06-02T23:52:33.837Z,38.60
2018-06-02T23:54:59.861Z,40.90
2018-06-02T23:57:25.893Z,42.53
2018-06-02T23:59:51.953Z,39.67
